Kirkwood, CA (95646)

10:03 AM PST on February 23, 2017 (GMT -0800)
North Upper Truckee | | Change Station
Active Advisory: Hydrologic Statement

Elev 6549 ft 38.86 °N, 120.04 °W | Updated 3 seconds ago

Overcast
Overcast
21.4 °F
Feels Like 21 °F
N
0.0
Wind Variable Wind from North
Gusts 0.0 mph

Today
High -- | Low -- °F
--% Chance of Precip.
Yesterday
High -- | Low -- °F
Precip. -- in
Pressure 30.06 in
Visibility 10.0 miles
Clouds Mostly Cloudy 2900 ft
Overcast 3800 ft
Windchill 21 °F
Dew Point 16 °F
Humidity 83%
Rainfall 0.00 in
Snow Depth Not available.
6:40 AM 5:47 PM
Waning Crescent, 9% visible
METAR KTVL 231753Z AUTO VRB03KT 10SM BKN029 OVC038 M05/M11 A2998 RMK AO2 SLP179 60003 T10501111 11050 21094 52002
Pressure 30.06 in
Visibility 10.0 miles
Clouds Mostly Cloudy 2900 ft
Overcast 3800 ft
Windchill 21 °F
Dew Point 16 °F
Humidity 83%
Rainfall 0.00 in
Snow Depth Not available.
6:40 AM 5:47 PM
Waning Crescent, 9% visible
METAR KTVL 231753Z AUTO VRB03KT 10SM BKN029 OVC038 M05/M11 A2998 RMK AO2 SLP179 60003 T10501111 11050 21094 52002

Get Your Daily Forecast Email!

Thanks for signing up!

Be on the lookout for a verification email in your inbox.

You'll start receiving the daily forecast at 8 AM.

×

10-Day Weather Forecast

Almanac

Astronomy

Feb. 23, 2017 Rise Set
Actual Time
Civil Twilight
Nautical Twilight
Astronomical Twilight
Moon
Length of Visible Light
Length of Day
Tomorrow will be .
, % of the Moon is Illuminated

Today's Extremes

State Highs State Lows

Community

WunderPhotos

Upload Photos

1,962,540 photos uploaded!

WunderBlog® & News

Nearby

Air Quality

  Air Quality AQ Index Pollutant
Not available.

Snow Depth

Station Depth Elevation

Earthquake Activity

City Distance Mag. Time & Date
Minimum magnitude displayed is 2.5.

Coastal Water Temperatures

Place Temperature

Stations

Nearby Weather Stations

Station Location Temp. Windchill Dew Point Humidity Wind Precip. Elev Updated Type
                   

Watches & Warnings

Hydrologic Statement
Issued: 9:17 AM PST Feb. 23, 2017 – National Weather Service

Forecast information for
feather river near Nicolaus.
* At 9:15 am Thursday the stage was 42.5 feet.
* Forecast to fluctuate near 42.0 ft thru late tomorrow morning.
* Flood stage 47.0 ft
* monitor stage 39.0 ft


&&

Lat... Lon 3897 12165 3903 12149 3884 12150 3876 12168